sensor_id;sensor_type;location;lat;lon;timestamp;P1;durP1;ratioP1;P2;durP2;ratioP2
65077;SDS011;51672;51.230;-2.322;2022-12-29T00:01:13;18.57;;;2.00;;
65077;SDS011;51672;51.230;-2.322;2022-12-29T00:04:55;20.33;;;2.05;;
65077;SDS011;51672;51.230;-2.322;2022-12-29T00:08:36;22.95;;;2.30;;
65077;SDS011;51672;51.230;-2.322;2022-12-29T00:12:22;21.55;;;2.28;;
65077;SDS011;51672;51.230;-2.322;2022-12-29T00:16:06;26.52;;;2.75;;
65077;SDS011;51672;51.230;-2.322;2022-12-29T00:19:48;28.60;;;2.13;;
65077;SDS011;51672;51.230;-2.322;2022-12-29T00:23:49;25.80;;;2.72;;
65077;SDS011;51672;51.230;-2.322;2022-12-29T00:27:49;28.80;;;2.20;;
65077;SDS011;51672;51.230;-2.322;2022-12-29T00:31:49;24.63;;;2.60;;
65077;SDS011;51672;51.230;-2.322;2022-12-29T00:35:53;25.42;;;2.42;;
65077;SDS011;51672;51.230;-2.322;2022-12-29T00:39:39;24.23;;;1.93;;
65077;SDS011;51672;51.230;-2.322;2022-12-29T00:43:39;27.55;;;3.30;;
65077;SDS011;51672;51.230;-2.322;2022-12-29T00:47:40;21.65;;;2.10;;
65077;SDS011;51672;51.230;-2.322;2022-12-29T00:51:22;21.08;;;2.92;;
65077;SDS011;51672;51.230;-2.322;2022-12-29T00:55:04;20.77;;;2.30;;
65077;SDS011;51672;51.230;-2.322;2022-12-29T00:58:46;25.90;;;2.75;;
65077;SDS011;51672;51.230;-2.322;2022-12-29T01:02:28;17.08;;;2.03;;
65077;SDS011;51672;51.230;-2.322;2022-12-29T01:06:10;18.83;;;2.47;;
65077;SDS011;51672;51.230;-2.322;2022-12-29T01:09:52;24.13;;;2.25;;
65077;SDS011;51672;51.230;-2.322;2022-12-29T01:13:52;20.30;;;1.73;;
65077;SDS011;51672;51.230;-2.322;2022-12-29T01:17:34;28.77;;;2.87;;
65077;SDS011;51672;51.230;-2.322;2022-12-29T01:21:17;23.08;;;2.50;;
65077;SDS011;51672;51.230;-2.322;2022-12-29T01:24:58;23.10;;;2.45;;
65077;SDS011;51672;51.230;-2.322;2022-12-29T01:28:40;21.67;;;2.60;;
65077;SDS011;51672;51.230;-2.322;2022-12-29T01:32:23;25.55;;;2.58;;
65077;SDS011;51672;51.230;-2.322;2022-12-29T01:36:10;20.17;;;2.38;;
65077;SDS011;51672;51.230;-2.322;2022-12-29T01:39:54;23.35;;;2.05;;
65077;SDS011;51672;51.230;-2.322;2022-12-29T01:43:56;23.07;;;2.47;;
65077;SDS011;51672;51.230;-2.322;2022-12-29T01:47:59;24.75;;;3.00;;
65077;SDS011;51672;51.230;-2.322;2022-12-29T01:51:47;28.60;;;2.65;;
65077;SDS011;51672;51.230;-2.322;2022-12-29T01:55:35;19.77;;;2.87;;
65077;SDS011;51672;51.230;-2.322;2022-12-29T01:59:30;28.65;;;2.75;;
65077;SDS011;51672;51.230;-2.322;2022-12-29T02:03:14;24.90;;;2.40;;
65077;SDS011;51672;51.230;-2.322;2022-12-29T02:07:02;26.17;;;3.00;;
65077;SDS011;51672;51.230;-2.322;2022-12-29T02:10:50;20.88;;;2.97;;
65077;SDS011;51672;51.230;-2.322;2022-12-29T02:14:32;20.75;;;3.20;;
65077;SDS011;51672;51.230;-2.322;2022-12-29T02:46:17;18.90;;;1.98;;
65077;SDS011;51672;51.230;-2.322;2022-12-29T02:50:22;21.20;;;1.92;;
65077;SDS011;51672;51.230;-2.322;2022-12-29T02:54:08;16.45;;;2.05;;
65077;SDS011;51672;51.230;-2.322;2022-12-29T02:58:19;21.92;;;2.20;;
65077;SDS011;51672;51.230;-2.322;2022-12-29T03:06:10;21.95;;;2.60;;
65077;SDS011;51672;51.230;-2.322;2022-12-29T03:14:08;19.60;;;1.63;;
65077;SDS011;51672;51.230;-2.322;2022-12-29T03:22:34;19.00;;;2.00;;
65077;SDS011;51672;51.230;-2.322;2022-12-29T03:26:21;18.52;;;2.42;;
65077;SDS011;51672;51.230;-2.322;2022-12-29T03:30:03;19.33;;;2.15;;
65077;SDS011;51672;51.230;-2.322;2022-12-29T03:33:47;15.30;;;1.90;;
65077;SDS011;51672;51.230;-2.322;2022-12-29T03:37:31;15.25;;;1.95;;
65077;SDS011;51672;51.230;-2.322;2022-12-29T03:41:23;12.20;;;1.33;;
65077;SDS011;51672;51.230;-2.322;2022-12-29T03:45:10;14.25;;;1.50;;
65077;SDS011;51672;51.230;-2.322;2022-12-29T03:48:52;15.98;;;1.25;;
65077;SDS011;51672;51.230;-2.322;2022-12-29T03:52:34;8.40;;;1.30;;
65077;SDS011;51672;51.230;-2.322;2022-12-29T03:56:16;7.97;;;1.23;;
65077;SDS011;51672;51.230;-2.322;2022-12-29T03:59:58;11.65;;;0.65;;
65077;SDS011;51672;51.230;-2.322;2022-12-29T04:03:40;9.57;;;1.05;;
65077;SDS011;51672;51.230;-2.322;2022-12-29T04:07:22;6.75;;;0.85;;
65077;SDS011;51672;51.230;-2.322;2022-12-29T04:11:04;11.85;;;1.40;;
65077;SDS011;51672;51.230;-2.322;2022-12-29T04:14:47;9.18;;;1.05;;
65077;SDS011;51672;51.230;-2.322;2022-12-29T04:18:29;11.07;;;0.93;;
65077;SDS011;51672;51.230;-2.322;2022-12-29T04:22:11;14.35;;;0.90;;
65077;SDS011;51672;51.230;-2.322;2022-12-29T04:25:53;16.25;;;1.15;;
65077;SDS011;51672;51.230;-2.322;2022-12-29T04:29:35;13.83;;;1.30;;
65077;SDS011;51672;51.230;-2.322;2022-12-29T04:33:17;12.68;;;1.30;;
65077;SDS011;51672;51.230;-2.322;2022-12-29T04:36:59;10.13;;;1.38;;
65077;SDS011;51672;51.230;-2.322;2022-12-29T04:40:42;12.73;;;1.45;;
65077;SDS011;51672;51.230;-2.322;2022-12-29T04:44:24;11.73;;;1.38;;
65077;SDS011;51672;51.230;-2.322;2022-12-29T04:48:06;15.07;;;1.58;;
65077;SDS011;51672;51.230;-2.322;2022-12-29T04:51:48;12.07;;;1.58;;
65077;SDS011;51672;51.230;-2.322;2022-12-29T04:55:30;10.47;;;1.00;;
65077;SDS011;51672;51.230;-2.322;2022-12-29T04:59:12;15.52;;;1.63;;
65077;SDS011;51672;51.230;-2.322;2022-12-29T05:02:54;12.95;;;1.40;;
65077;SDS011;51672;51.230;-2.322;2022-12-29T05:06:36;11.53;;;1.10;;
65077;SDS011;51672;51.230;-2.322;2022-12-29T05:10:18;10.68;;;0.88;;
65077;SDS011;51672;51.230;-2.322;2022-12-29T05:14:00;13.35;;;2.03;;
65077;SDS011;51672;51.230;-2.322;2022-12-29T05:17:42;11.80;;;1.30;;
65077;SDS011;51672;51.230;-2.322;2022-12-29T05:21:24;10.07;;;1.13;;
65077;SDS011;51672;51.230;-2.322;2022-12-29T05:25:06;11.88;;;0.90;;
65077;SDS011;51672;51.230;-2.322;2022-12-29T05:28:48;11.23;;;1.20;;
65077;SDS011;51672;51.230;-2.322;2022-12-29T05:32:30;13.93;;;1.50;;
65077;SDS011;51672;51.230;-2.322;2022-12-29T05:36:13;7.72;;;0.95;;
65077;SDS011;51672;51.230;-2.322;2022-12-29T05:39:55;11.98;;;1.13;;
65077;SDS011;51672;51.230;-2.322;2022-12-29T05:43:37;7.80;;;1.30;;
65077;SDS011;51672;51.230;-2.322;2022-12-29T05:47:19;10.52;;;1.60;;
65077;SDS011;51672;51.230;-2.322;2022-12-29T05:51:01;6.00;;;0.68;;
65077;SDS011;51672;51.230;-2.322;2022-12-29T05:54:43;7.05;;;0.65;;
65077;SDS011;51672;51.230;-2.322;2022-12-29T05:58:25;9.60;;;0.82;;
65077;SDS011;51672;51.230;-2.322;2022-12-29T06:02:07;8.40;;;1.10;;
65077;SDS011;51672;51.230;-2.322;2022-12-29T06:05:50;7.22;;;0.70;;
65077;SDS011;51672;51.230;-2.322;2022-12-29T06:09:32;9.50;;;0.67;;
65077;SDS011;51672;51.230;-2.322;2022-12-29T06:13:14;8.52;;;0.63;;
65077;SDS011;51672;51.230;-2.322;2022-12-29T06:16:57;9.23;;;1.00;;
65077;SDS011;51672;51.230;-2.322;2022-12-29T06:20:39;6.70;;;0.60;;
65077;SDS011;51672;51.230;-2.322;2022-12-29T06:24:21;8.35;;;1.30;;
65077;SDS011;51672;51.230;-2.322;2022-12-29T06:28:03;6.90;;;1.30;;
65077;SDS011;51672;51.230;-2.322;2022-12-29T06:31:46;4.10;;;0.93;;
65077;SDS011;51672;51.230;-2.322;2022-12-29T06:35:28;6.80;;;1.02;;
65077;SDS011;51672;51.230;-2.322;2022-12-29T06:39:10;8.52;;;0.93;;
65077;SDS011;51672;51.230;-2.322;2022-12-29T06:42:52;12.43;;;1.20;;
65077;SDS011;51672;51.230;-2.322;2022-12-29T06:46:34;7.70;;;1.00;;
65077;SDS011;51672;51.230;-2.322;2022-12-29T06:50:16;10.13;;;1.33;;
65077;SDS011;51672;51.230;-2.322;2022-12-29T06:53:58;11.35;;;0.90;;
65077;SDS011;51672;51.230;-2.322;2022-12-29T06:57:40;6.60;;;0.90;;
65077;SDS011;51672;51.230;-2.322;2022-12-29T07:01:22;13.55;;;1.05;;
65077;SDS011;51672;51.230;-2.322;2022-12-29T07:05:04;13.38;;;1.15;;
65077;SDS011;51672;51.230;-2.322;2022-12-29T07:08:46;6.90;;;0.90;;
65077;SDS011;51672;51.230;-2.322;2022-12-29T07:12:28;10.38;;;0.68;;
65077;SDS011;51672;51.230;-2.322;2022-12-29T07:16:10;8.20;;;0.95;;
65077;SDS011;51672;51.230;-2.322;2022-12-29T07:19:52;7.55;;;0.88;;
65077;SDS011;51672;51.230;-2.322;2022-12-29T07:23:34;12.97;;;1.20;;
65077;SDS011;51672;51.230;-2.322;2022-12-29T07:27:16;8.63;;;1.00;;
65077;SDS011;51672;51.230;-2.322;2022-12-29T07:30:58;7.32;;;0.77;;
65077;SDS011;51672;51.230;-2.322;2022-12-29T07:34:40;10.23;;;0.93;;
65077;SDS011;51672;51.230;-2.322;2022-12-29T07:38:22;9.82;;;1.15;;
65077;SDS011;51672;51.230;-2.322;2022-12-29T07:42:04;8.68;;;0.70;;
65077;SDS011;51672;51.230;-2.322;2022-12-29T07:45:47;11.60;;;0.80;;
65077;SDS011;51672;51.230;-2.322;2022-12-29T07:49:29;5.45;;;0.57;;
65077;SDS011;51672;51.230;-2.322;2022-12-29T07:53:11;6.60;;;0.93;;
65077;SDS011;51672;51.230;-2.322;2022-12-29T07:56:53;7.28;;;0.73;;
65077;SDS011;51672;51.230;-2.322;2022-12-29T08:00:35;12.43;;;0.73;;
65077;SDS011;51672;51.230;-2.322;2022-12-29T08:04:19;3.70;;;0.65;;
65077;SDS011;51672;51.230;-2.322;2022-12-29T08:08:01;5.10;;;0.50;;
65077;SDS011;51672;51.230;-2.322;2022-12-29T08:11:43;7.70;;;1.00;;
65077;SDS011;51672;51.230;-2.322;2022-12-29T08:15:25;7.25;;;0.55;;
65077;SDS011;51672;51.230;-2.322;2022-12-29T08:19:13;3.95;;;0.30;;
65077;SDS011;51672;51.230;-2.322;2022-12-29T08:22:55;6.37;;;0.47;;
65077;SDS011;51672;51.230;-2.322;2022-12-29T08:26:37;12.90;;;0.95;;
65077;SDS011;51672;51.230;-2.322;2022-12-29T08:30:19;4.28;;;0.63;;
65077;SDS011;51672;51.230;-2.322;2022-12-29T08:34:01;4.05;;;0.77;;
65077;SDS011;51672;51.230;-2.322;2022-12-29T08:38:04;9.40;;;0.60;;
65077;SDS011;51672;51.230;-2.322;2022-12-29T08:41:46;7.20;;;0.70;;
65077;SDS011;51672;51.230;-2.322;2022-12-29T08:49:19;7.20;;;0.70;;
65077;SDS011;51672;51.230;-2.322;2022-12-29T08:53:01;8.07;;;0.52;;
65077;SDS011;51672;51.230;-2.322;2022-12-29T09:00:47;6.82;;;0.68;;
65077;SDS011;51672;51.230;-2.322;2022-12-29T09:08:32;9.13;;;0.90;;
65077;SDS011;51672;51.230;-2.322;2022-12-29T09:12:14;8.25;;;0.82;;
65077;SDS011;51672;51.230;-2.322;2022-12-29T09:16:04;7.68;;;1.25;;
65077;SDS011;51672;51.230;-2.322;2022-12-29T09:19:46;13.17;;;1.10;;
65077;SDS011;51672;51.230;-2.322;2022-12-29T09:23:28;11.32;;;0.82;;
65077;SDS011;51672;51.230;-2.322;2022-12-29T09:31:00;12.37;;;1.60;;
65077;SDS011;51672;51.230;-2.322;2022-12-29T09:34:42;8.27;;;1.30;;
65077;SDS011;51672;51.230;-2.322;2022-12-29T09:38:35;8.63;;;1.60;;
65077;SDS011;51672;51.230;-2.322;2022-12-29T09:54:31;13.85;;;2.20;;
65077;SDS011;51672;51.230;-2.322;2022-12-29T10:18:50;13.90;;;1.60;;
65077;SDS011;51672;51.230;-2.322;2022-12-29T10:26:37;15.90;;;1.92;;
65077;SDS011;51672;51.230;-2.322;2022-12-29T10:30:40;10.05;;;1.48;;
65077;SDS011;51672;51.230;-2.322;2022-12-29T10:38:35;11.70;;;1.57;;
65077;SDS011;51672;51.230;-2.322;2022-12-29T10:46:40;15.25;;;1.70;;
65077;SDS011;51672;51.230;-2.322;2022-12-29T10:59:16;16.90;;;1.45;;
65077;SDS011;51672;51.230;-2.322;2022-12-29T11:11:34;14.82;;;1.73;;
65077;SDS011;51672;51.230;-2.322;2022-12-29T11:19:22;16.60;;;1.33;;
65077;SDS011;51672;51.230;-2.322;2022-12-29T11:31:47;17.17;;;2.27;;
65077;SDS011;51672;51.230;-2.322;2022-12-29T11:44:10;15.18;;;1.77;;
65077;SDS011;51672;51.230;-2.322;2022-12-29T11:56:39;19.02;;;2.63;;
65077;SDS011;51672;51.230;-2.322;2022-12-29T12:04:23;17.92;;;1.85;;
65077;SDS011;51672;51.230;-2.322;2022-12-29T12:17:00;10.18;;;1.48;;
65077;SDS011;51672;51.230;-2.322;2022-12-29T12:21:25;15.57;;;1.67;;
65077;SDS011;51672;51.230;-2.322;2022-12-29T12:30:20;10.40;;;1.45;;
65077;SDS011;51672;51.230;-2.322;2022-12-29T13:26:39;16.60;;;1.50;;
65077;SDS011;51672;51.230;-2.322;2022-12-29T13:39:04;19.30;;;2.40;;
65077;SDS011;51672;51.230;-2.322;2022-12-29T13:43:17;13.98;;;2.15;;
65077;SDS011;51672;51.230;-2.322;2022-12-29T13:47:04;16.20;;;1.57;;
65077;SDS011;51672;51.230;-2.322;2022-12-29T13:51:26;13.38;;;1.48;;
65077;SDS011;51672;51.230;-2.322;2022-12-29T13:59:36;12.77;;;1.92;;
65077;SDS011;51672;51.230;-2.322;2022-12-29T14:03:51;11.23;;;1.80;;
65077;SDS011;51672;51.230;-2.322;2022-12-29T14:20:55;8.10;;;2.35;;
65077;SDS011;51672;51.230;-2.322;2022-12-29T14:25:01;11.20;;;1.97;;
65077;SDS011;51672;51.230;-2.322;2022-12-29T14:28:46;13.07;;;1.52;;
65077;SDS011;51672;51.230;-2.322;2022-12-29T14:41:16;9.88;;;1.33;;
65077;SDS011;51672;51.230;-2.322;2022-12-29T14:45:43;9.88;;;1.33;;
65077;SDS011;51672;51.230;-2.322;2022-12-29T14:50:10;7.40;;;0.90;;
65077;SDS011;51672;51.230;-2.322;2022-12-29T15:06:55;9.77;;;1.67;;
65077;SDS011;51672;51.230;-2.322;2022-12-29T15:14:52;7.93;;;1.35;;
65077;SDS011;51672;51.230;-2.322;2022-12-29T15:22:43;11.27;;;1.20;;
65077;SDS011;51672;51.230;-2.322;2022-12-29T15:39:47;7.40;;;1.02;;
65077;SDS011;51672;51.230;-2.322;2022-12-29T15:47:34;13.20;;;2.20;;
65077;SDS011;51672;51.230;-2.322;2022-12-29T15:55:26;10.35;;;1.83;;
65077;SDS011;51672;51.230;-2.322;2022-12-29T15:59:36;8.93;;;1.53;;
65077;SDS011;51672;51.230;-2.322;2022-12-29T16:03:29;8.45;;;1.98;;
65077;SDS011;51672;51.230;-2.322;2022-12-29T16:07:55;6.03;;;1.10;;
65077;SDS011;51672;51.230;-2.322;2022-12-29T16:15:39;7.57;;;1.57;;
65077;SDS011;51672;51.230;-2.322;2022-12-29T16:19:24;6.05;;;1.27;;
65077;SDS011;51672;51.230;-2.322;2022-12-29T16:23:16;6.90;;;1.05;;
65077;SDS011;51672;51.230;-2.322;2022-12-29T16:30:46;5.20;;;0.93;;
65077;SDS011;51672;51.230;-2.322;2022-12-29T16:38:21;8.03;;;1.73;;
65077;SDS011;51672;51.230;-2.322;2022-12-29T16:46:28;6.50;;;0.90;;
65077;SDS011;51672;51.230;-2.322;2022-12-29T16:50:12;7.15;;;1.10;;
65077;SDS011;51672;51.230;-2.322;2022-12-29T16:54:14;5.80;;;0.90;;
65077;SDS011;51672;51.230;-2.322;2022-12-29T16:58:04;7.18;;;1.30;;
65077;SDS011;51672;51.230;-2.322;2022-12-29T17:01:46;7.40;;;1.27;;
65077;SDS011;51672;51.230;-2.322;2022-12-29T17:05:28;7.30;;;1.47;;
65077;SDS011;51672;51.230;-2.322;2022-12-29T17:09:20;7.72;;;1.27;;
65077;SDS011;51672;51.230;-2.322;2022-12-29T17:13:04;5.78;;;0.98;;
65077;SDS011;51672;51.230;-2.322;2022-12-29T17:16:46;12.53;;;1.80;;
65077;SDS011;51672;51.230;-2.322;2022-12-29T17:20:30;9.93;;;1.27;;
65077;SDS011;51672;51.230;-2.322;2022-12-29T17:24:18;9.27;;;1.58;;
65077;SDS011;51672;51.230;-2.322;2022-12-29T17:28:06;10.77;;;1.38;;
65077;SDS011;51672;51.230;-2.322;2022-12-29T17:32:01;10.30;;;1.27;;
65077;SDS011;51672;51.230;-2.322;2022-12-29T17:35:45;10.18;;;1.52;;
65077;SDS011;51672;51.230;-2.322;2022-12-29T17:39:35;10.73;;;1.90;;
65077;SDS011;51672;51.230;-2.322;2022-12-29T17:43:17;8.67;;;1.30;;
65077;SDS011;51672;51.230;-2.322;2022-12-29T17:47:00;9.60;;;1.48;;
65077;SDS011;51672;51.230;-2.322;2022-12-29T17:50:42;8.98;;;1.25;;
65077;SDS011;51672;51.230;-2.322;2022-12-29T17:54:26;10.63;;;1.70;;
65077;SDS011;51672;51.230;-2.322;2022-12-29T17:58:21;12.65;;;1.48;;
65077;SDS011;51672;51.230;-2.322;2022-12-29T18:02:29;6.95;;;1.73;;
65077;SDS011;51672;51.230;-2.322;2022-12-29T18:06:12;12.98;;;1.58;;
65077;SDS011;51672;51.230;-2.322;2022-12-29T18:09:54;6.70;;;1.30;;
65077;SDS011;51672;51.230;-2.322;2022-12-29T18:13:36;11.23;;;1.20;;
65077;SDS011;51672;51.230;-2.322;2022-12-29T18:17:26;10.35;;;1.20;;
65077;SDS011;51672;51.230;-2.322;2022-12-29T18:21:22;9.57;;;0.93;;
65077;SDS011;51672;51.230;-2.322;2022-12-29T18:28:59;9.60;;;1.20;;
65077;SDS011;51672;51.230;-2.322;2022-12-29T18:32:41;7.00;;;1.00;;
65077;SDS011;51672;51.230;-2.322;2022-12-29T18:36:23;5.75;;;1.33;;
65077;SDS011;51672;51.230;-2.322;2022-12-29T18:40:07;9.27;;;1.25;;
65077;SDS011;51672;51.230;-2.322;2022-12-29T18:43:52;13.32;;;1.17;;
65077;SDS011;51672;51.230;-2.322;2022-12-29T18:47:33;9.77;;;1.30;;
65077;SDS011;51672;51.230;-2.322;2022-12-29T18:51:20;6.55;;;1.25;;
65077;SDS011;51672;51.230;-2.322;2022-12-29T18:55:03;7.75;;;1.50;;
65077;SDS011;51672;51.230;-2.322;2022-12-29T18:58:50;7.57;;;1.30;;
65077;SDS011;51672;51.230;-2.322;2022-12-29T19:02:34;7.25;;;1.05;;
65077;SDS011;51672;51.230;-2.322;2022-12-29T19:06:16;10.65;;;2.15;;
65077;SDS011;51672;51.230;-2.322;2022-12-29T19:09:59;6.00;;;1.37;;
65077;SDS011;51672;51.230;-2.322;2022-12-29T19:13:41;12.82;;;1.40;;
65077;SDS011;51672;51.230;-2.322;2022-12-29T19:17:23;9.75;;;1.42;;
65077;SDS011;51672;51.230;-2.322;2022-12-29T19:21:05;6.90;;;1.20;;
65077;SDS011;51672;51.230;-2.322;2022-12-29T19:24:47;9.53;;;1.60;;
65077;SDS011;51672;51.230;-2.322;2022-12-29T19:28:29;9.25;;;1.77;;
65077;SDS011;51672;51.230;-2.322;2022-12-29T19:32:11;9.20;;;1.60;;
65077;SDS011;51672;51.230;-2.322;2022-12-29T19:35:57;8.70;;;1.70;;
65077;SDS011;51672;51.230;-2.322;2022-12-29T19:39:41;11.25;;;1.77;;
65077;SDS011;51672;51.230;-2.322;2022-12-29T19:43:23;9.63;;;1.98;;
65077;SDS011;51672;51.230;-2.322;2022-12-29T19:47:05;10.83;;;1.90;;
65077;SDS011;51672;51.230;-2.322;2022-12-29T19:50:47;8.65;;;2.20;;
65077;SDS011;51672;51.230;-2.322;2022-12-29T19:54:29;8.65;;;2.30;;
65077;SDS011;51672;51.230;-2.322;2022-12-29T19:58:11;8.55;;;2.10;;
65077;SDS011;51672;51.230;-2.322;2022-12-29T20:01:54;10.20;;;1.80;;
65077;SDS011;51672;51.230;-2.322;2022-12-29T20:05:36;10.30;;;2.20;;
65077;SDS011;51672;51.230;-2.322;2022-12-29T20:09:19;14.57;;;3.33;;
65077;SDS011;51672;51.230;-2.322;2022-12-29T20:13:01;10.87;;;2.80;;
65077;SDS011;51672;51.230;-2.322;2022-12-29T20:16:44;11.15;;;2.40;;
65077;SDS011;51672;51.230;-2.322;2022-12-29T20:20:48;6.97;;;2.25;;
65077;SDS011;51672;51.230;-2.322;2022-12-29T20:24:30;12.63;;;2.63;;
65077;SDS011;51672;51.230;-2.322;2022-12-29T20:28:13;9.45;;;2.03;;
65077;SDS011;51672;51.230;-2.322;2022-12-29T20:31:56;15.68;;;2.00;;
65077;SDS011;51672;51.230;-2.322;2022-12-29T20:35:38;11.38;;;1.65;;
65077;SDS011;51672;51.230;-2.322;2022-12-29T20:39:20;6.73;;;1.33;;
65077;SDS011;51672;51.230;-2.322;2022-12-29T20:43:02;15.68;;;2.60;;
65077;SDS011;51672;51.230;-2.322;2022-12-29T20:46:44;10.23;;;1.70;;
65077;SDS011;51672;51.230;-2.322;2022-12-29T20:50:26;8.77;;;1.90;;
65077;SDS011;51672;51.230;-2.322;2022-12-29T20:54:08;11.38;;;2.00;;
65077;SDS011;51672;51.230;-2.322;2022-12-29T20:57:52;8.93;;;2.00;;
65077;SDS011;51672;51.230;-2.322;2022-12-29T21:01:54;10.57;;;2.37;;
65077;SDS011;51672;51.230;-2.322;2022-12-29T21:05:37;7.15;;;1.75;;
65077;SDS011;51672;51.230;-2.322;2022-12-29T21:09:19;6.93;;;1.90;;
65077;SDS011;51672;51.230;-2.322;2022-12-29T21:13:02;8.57;;;1.48;;
65077;SDS011;51672;51.230;-2.322;2022-12-29T21:16:44;10.40;;;1.50;;
65077;SDS011;51672;51.230;-2.322;2022-12-29T21:20:27;12.63;;;1.50;;
65077;SDS011;51672;51.230;-2.322;2022-12-29T21:24:12;10.52;;;1.88;;
65077;SDS011;51672;51.230;-2.322;2022-12-29T21:27:54;6.23;;;1.43;;
65077;SDS011;51672;51.230;-2.322;2022-12-29T21:31:36;11.98;;;1.42;;
65077;SDS011;51672;51.230;-2.322;2022-12-29T21:35:18;9.35;;;1.40;;
65077;SDS011;51672;51.230;-2.322;2022-12-29T21:39:01;7.07;;;1.30;;
65077;SDS011;51672;51.230;-2.322;2022-12-29T21:42:43;10.43;;;1.60;;
65077;SDS011;51672;51.230;-2.322;2022-12-29T21:46:25;7.05;;;1.30;;
65077;SDS011;51672;51.230;-2.322;2022-12-29T21:50:08;10.63;;;1.65;;
65077;SDS011;51672;51.230;-2.322;2022-12-29T21:53:54;11.33;;;1.77;;
65077;SDS011;51672;51.230;-2.322;2022-12-29T21:57:57;9.15;;;1.48;;
65077;SDS011;51672;51.230;-2.322;2022-12-29T22:01:58;8.30;;;1.30;;
65077;SDS011;51672;51.230;-2.322;2022-12-29T22:05:59;9.60;;;1.03;;
65077;SDS011;51672;51.230;-2.322;2022-12-29T22:10:00;13.18;;;1.30;;
65077;SDS011;51672;51.230;-2.322;2022-12-29T22:14:01;10.55;;;1.20;;
65077;SDS011;51672;51.230;-2.322;2022-12-29T22:17:44;12.90;;;2.30;;
65077;SDS011;51672;51.230;-2.322;2022-12-29T22:21:29;13.98;;;2.50;;
65077;SDS011;51672;51.230;-2.322;2022-12-29T22:25:11;12.80;;;2.72;;
65077;SDS011;51672;51.230;-2.322;2022-12-29T22:28:53;12.10;;;2.28;;
65077;SDS011;51672;51.230;-2.322;2022-12-29T22:32:35;10.20;;;1.10;;
65077;SDS011;51672;51.230;-2.322;2022-12-29T22:36:17;12.75;;;1.45;;
65077;SDS011;51672;51.230;-2.322;2022-12-29T22:39:59;14.63;;;1.30;;
65077;SDS011;51672;51.230;-2.322;2022-12-29T22:43:41;10.57;;;1.30;;
65077;SDS011;51672;51.230;-2.322;2022-12-29T22:47:23;11.38;;;1.50;;
65077;SDS011;51672;51.230;-2.322;2022-12-29T22:51:05;10.85;;;1.10;;
65077;SDS011;51672;51.230;-2.322;2022-12-29T22:54:47;8.30;;;1.30;;
65077;SDS011;51672;51.230;-2.322;2022-12-29T22:58:29;13.77;;;1.48;;
65077;SDS011;51672;51.230;-2.322;2022-12-29T23:02:11;8.75;;;1.52;;
65077;SDS011;51672;51.230;-2.322;2022-12-29T23:05:54;11.80;;;1.40;;
65077;SDS011;51672;51.230;-2.322;2022-12-29T23:09:40;12.63;;;2.30;;
65077;SDS011;51672;51.230;-2.322;2022-12-29T23:13:21;10.38;;;1.40;;
65077;SDS011;51672;51.230;-2.322;2022-12-29T23:17:03;11.23;;;1.27;;
65077;SDS011;51672;51.230;-2.322;2022-12-29T23:20:47;10.37;;;1.30;;
65077;SDS011;51672;51.230;-2.322;2022-12-29T23:24:29;12.55;;;1.67;;
65077;SDS011;51672;51.230;-2.322;2022-12-29T23:28:11;11.52;;;1.20;;
65077;SDS011;51672;51.230;-2.322;2022-12-29T23:31:53;12.67;;;1.73;;
65077;SDS011;51672;51.230;-2.322;2022-12-29T23:35:35;13.15;;;1.30;;
65077;SDS011;51672;51.230;-2.322;2022-12-29T23:39:20;11.20;;;1.08;;
65077;SDS011;51672;51.230;-2.322;2022-12-29T23:43:04;11.57;;;1.10;;
65077;SDS011;51672;51.230;-2.322;2022-12-29T23:46:46;13.57;;;1.50;;
65077;SDS011;51672;51.230;-2.322;2022-12-29T23:50:28;12.02;;;1.48;;
65077;SDS011;51672;51.230;-2.322;2022-12-29T23:54:10;10.10;;;1.33;;
65077;SDS011;51672;51.230;-2.322;2022-12-29T23:57:53;10.60;;;1.07;;
